createdAt,value
2022-12-03T00:00:45.053Z,83.87
2022-12-03T00:04:46.741Z,83.30
2022-12-03T00:08:48.412Z,83.51
2022-12-03T00:12:50.094Z,83.66
2022-12-03T00:16:51.769Z,83.60
2022-12-03T00:20:53.466Z,83.50
2022-12-03T00:24:55.407Z,83.86
2022-12-03T00:28:57.976Z,83.52
2022-12-03T00:32:59.643Z,83.83
2022-12-03T00:37:03.105Z,83.76
2022-12-03T00:41:04.952Z,83.66
2022-12-03T00:45:07.132Z,83.48
2022-12-03T00:49:09.077Z,83.46
2022-12-03T00:53:10.757Z,83.89
2022-12-03T00:57:12.480Z,83.92
2022-12-03T01:01:15.720Z,83.63
2022-12-03T01:05:18.327Z,83.84
2022-12-03T01:09:20.143Z,83.67
2022-12-03T01:13:21.825Z,84.04
2022-12-03T01:17:23.557Z,83.94
2022-12-03T01:21:25.247Z,83.95
2022-12-03T01:25:26.963Z,83.69
2022-12-03T01:29:28.636Z,83.71
2022-12-03T01:33:30.468Z,84.02
2022-12-03T01:37:32.226Z,83.92
2022-12-03T01:41:35.051Z,84.09
2022-12-03T01:45:36.787Z,83.92
2022-12-03T01:49:53.171Z,83.88
2022-12-03T01:53:54.836Z,84.03
2022-12-03T01:58:00.914Z,84.25
2022-12-03T02:02:24.245Z,84.42
2022-12-03T02:06:30.109Z,84.27
2022-12-03T02:10:36.167Z,84.60
2022-12-03T02:14:37.944Z,84.50
2022-12-03T02:18:39.676Z,84.67
2022-12-03T02:23:28.701Z,84.46
2022-12-03T02:27:30.528Z,84.54
2022-12-03T02:31:33.207Z,84.81
2022-12-03T02:35:37.324Z,85.06
2022-12-03T02:39:43.052Z,85.15
2022-12-03T02:43:44.677Z,85.13
2022-12-03T02:47:51.524Z,84.89
2022-12-03T02:51:53.700Z,85.27
2022-12-03T02:55:59.153Z,85.47
2022-12-03T03:00:00.953Z,85.58
2022-12-03T03:04:03.393Z,85.62
2022-12-03T03:08:06.584Z,85.17
2022-12-03T03:12:09.743Z,85.42
2022-12-03T03:16:11.581Z,85.87
2022-12-03T03:20:13.964Z,85.39
2022-12-03T03:24:16.488Z,85.92
2022-12-03T03:28:18.917Z,85.67
2022-12-03T03:32:21.091Z,86.01
2022-12-03T03:36:23.420Z,85.75
2022-12-03T03:40:26.205Z,85.72
2022-12-03T03:44:29.421Z,86.04
2022-12-03T03:48:31.977Z,85.97
2022-12-03T03:52:34.486Z,86.00
2022-12-03T03:56:36.363Z,86.30
2022-12-03T04:00:38.190Z,86.48
2022-12-03T04:04:39.965Z,86.52
2022-12-03T04:08:41.752Z,86.63
2022-12-03T04:12:55.546Z,86.47
2022-12-03T04:16:57.244Z,86.43
2022-12-03T04:21:18.972Z,86.41
2022-12-03T04:25:39.316Z,86.38
2022-12-03T04:29:41.126Z,86.39
2022-12-03T04:34:01.525Z,86.87
2022-12-03T04:38:03.293Z,86.77
2022-12-03T04:42:06.306Z,86.73
2022-12-03T04:46:08.071Z,86.44
2022-12-03T04:50:10.351Z,86.68
2022-12-03T04:54:12.110Z,86.55
2022-12-03T04:58:13.839Z,86.85
2022-12-03T05:02:15.629Z,86.72
2022-12-03T05:06:17.477Z,86.35
2022-12-03T05:10:19.311Z,86.24
2022-12-03T05:14:20.985Z,86.29
2022-12-03T05:18:22.694Z,86.26
2022-12-03T05:22:24.393Z,86.58
2022-12-03T05:26:26.178Z,86.59
2022-12-03T05:30:28.072Z,86.48
2022-12-03T05:34:31.685Z,86.77
2022-12-03T05:38:33.511Z,86.76
2022-12-03T05:42:53.823Z,87.15
2022-12-03T05:46:55.539Z,86.93
2022-12-03T05:50:57.197Z,87.33
2022-12-03T05:54:58.962Z,87.19
2022-12-03T05:59:00.978Z,87.03
2022-12-03T06:03:02.971Z,87.07
2022-12-03T06:07:06.632Z,87.43
2022-12-03T06:11:11.412Z,87.05
2022-12-03T06:15:14.760Z,86.81
2022-12-03T06:19:16.477Z,86.66
2022-12-03T06:23:18.130Z,86.45
2022-12-03T06:27:20.580Z,86.39
2022-12-03T06:31:23.253Z,86.14
2022-12-03T06:35:25.077Z,86.16
2022-12-03T06:39:27.262Z,86.57
2022-12-03T06:43:30.999Z,86.67
2022-12-03T06:47:32.716Z,86.46
2022-12-03T06:51:34.538Z,86.14
2022-12-03T06:55:36.430Z,86.43
2022-12-03T06:59:38.215Z,85.99
2022-12-03T07:03:39.997Z,86.23
2022-12-03T07:07:41.760Z,85.79
2022-12-03T07:11:43.571Z,86.23
2022-12-03T07:15:45.277Z,85.97
2022-12-03T07:19:47.038Z,85.80
2022-12-03T07:23:48.769Z,86.10
2022-12-03T07:27:50.680Z,85.76
2022-12-03T07:31:52.480Z,85.88
2022-12-03T07:35:54.285Z,86.01
2022-12-03T07:39:55.986Z,85.76
2022-12-03T07:43:57.671Z,85.44
2022-12-03T07:47:59.387Z,85.28
2022-12-03T07:52:01.119Z,85.27
2022-12-03T07:56:06.434Z,85.40
2022-12-03T08:00:08.516Z,85.28
2022-12-03T08:04:11.458Z,85.58
2022-12-03T08:08:13.314Z,85.68
2022-12-03T08:12:17.539Z,85.41
2022-12-03T08:16:22.088Z,85.50
2022-12-03T08:20:26.533Z,85.56
2022-12-03T08:24:29.326Z,85.31
2022-12-03T08:28:31.998Z,85.57
2022-12-03T08:32:33.687Z,85.67
2022-12-03T08:36:36.568Z,85.88
2022-12-03T08:40:45.069Z,85.33
2022-12-03T08:44:47.585Z,85.55
2022-12-03T08:48:49.777Z,85.79
2022-12-03T08:52:53.442Z,85.33
2022-12-03T08:56:55.435Z,85.16
2022-12-03T09:01:02.975Z,84.58
2022-12-03T09:05:20.151Z,84.67
2022-12-03T09:09:23.049Z,84.25
2022-12-03T09:13:24.722Z,84.38
2022-12-03T09:17:26.671Z,84.02
2022-12-03T09:21:28.379Z,83.85
2022-12-03T09:25:32.110Z,83.59
2022-12-03T09:29:33.922Z,83.11
2022-12-03T09:33:35.826Z,82.92
2022-12-03T09:37:37.689Z,82.67
2022-12-03T09:41:39.520Z,82.61
2022-12-03T09:45:41.399Z,81.87
2022-12-03T09:49:43.489Z,81.71
2022-12-03T09:53:46.343Z,81.50
2022-12-03T09:57:48.870Z,81.44
2022-12-03T10:01:51.985Z,81.28
2022-12-03T10:05:54.722Z,81.30
2022-12-03T10:09:56.584Z,81.06
2022-12-03T10:13:58.860Z,81.12
2022-12-03T10:18:05.985Z,81.68
2022-12-03T10:22:07.672Z,81.61
2022-12-03T10:26:09.531Z,81.80
2022-12-03T10:30:28.847Z,82.10
2022-12-03T10:34:36.467Z,81.98
2022-12-03T10:38:38.190Z,82.08
2022-12-03T10:42:41.049Z,82.06
2022-12-03T10:46:43.412Z,81.87
2022-12-03T10:50:56.430Z,82.51
2022-12-03T10:54:58.394Z,82.30
2022-12-03T10:59:00.074Z,82.22
2022-12-03T11:03:01.835Z,82.77
2022-12-03T11:07:12.243Z,82.55
2022-12-03T11:11:27.644Z,82.55
2022-12-03T11:15:44.297Z,82.75
2022-12-03T11:19:47.435Z,82.74
2022-12-03T11:23:52.134Z,83.18
2022-12-03T11:28:32.994Z,82.86
2022-12-03T11:32:43.669Z,83.27
2022-12-03T11:37:10.319Z,83.05
2022-12-03T11:41:19.688Z,83.13
2022-12-03T11:45:39.809Z,83.45
2022-12-03T11:49:47.109Z,83.42
2022-12-03T11:53:50.454Z,83.22
2022-12-03T11:57:59.424Z,83.67
2022-12-03T12:02:01.090Z,83.26
2022-12-03T12:06:10.787Z,83.63
2022-12-03T12:10:12.540Z,83.47
2022-12-03T12:14:14.364Z,83.70
2022-12-03T12:18:39.114Z,83.19
2022-12-03T12:22:40.823Z,83.46
2022-12-03T12:26:51.393Z,83.00
2022-12-03T12:30:53.092Z,82.93
2022-12-03T12:35:00.294Z,82.92
2022-12-03T12:39:02.110Z,82.81
2022-12-03T12:43:18.911Z,82.44
2022-12-03T12:47:26.848Z,82.76
2022-12-03T12:51:28.690Z,82.29
2022-12-03T12:55:30.465Z,82.38
2022-12-03T12:59:32.685Z,82.27
2022-12-03T13:03:38.077Z,82.47
2022-12-03T13:07:41.508Z,82.65
2022-12-03T13:11:46.851Z,82.58
2022-12-03T13:15:52.287Z,82.52
2022-12-03T13:20:03.651Z,82.50
2022-12-03T13:24:36.687Z,83.04
2022-12-03T13:28:41.375Z,82.76
2022-12-03T13:32:43.873Z,82.72
2022-12-03T13:36:50.547Z,82.68
2022-12-03T13:41:01.152Z,83.09
2022-12-03T13:45:08.982Z,83.04
2022-12-03T13:49:21.049Z,83.17
2022-12-03T13:53:28.050Z,82.83
2022-12-03T13:57:29.742Z,83.33
2022-12-03T14:01:31.497Z,83.41
2022-12-03T14:05:33.254Z,83.29
2022-12-03T14:09:35.061Z,83.63
2022-12-03T14:13:36.700Z,83.80
2022-12-03T14:17:38.443Z,83.79
2022-12-03T14:21:40.272Z,83.60
2022-12-03T14:25:44.055Z,83.92
2022-12-03T14:29:45.818Z,83.95
2022-12-03T14:33:47.571Z,84.30
2022-12-03T14:37:49.223Z,84.36
2022-12-03T14:42:09.288Z,84.64
2022-12-03T14:46:11.000Z,84.67
2022-12-03T14:50:14.562Z,84.51
2022-12-03T14:54:16.363Z,84.92
2022-12-03T14:58:18.174Z,84.73
2022-12-03T15:02:19.936Z,84.82
2022-12-03T15:06:21.680Z,84.79
2022-12-03T15:10:23.428Z,84.72
2022-12-03T15:14:25.195Z,84.34
2022-12-03T15:18:27.010Z,84.46
2022-12-03T15:22:28.648Z,83.96
2022-12-03T15:26:30.547Z,84.08
2022-12-03T15:30:35.360Z,84.01
2022-12-03T15:34:37.058Z,84.05
2022-12-03T15:38:38.725Z,83.89
2022-12-03T15:42:40.424Z,83.34
2022-12-03T15:46:42.135Z,83.79
2022-12-03T15:50:43.926Z,83.67
2022-12-03T15:54:46.218Z,83.27
2022-12-03T15:58:47.948Z,83.44
2022-12-03T16:02:53.077Z,83.51
2022-12-03T16:06:55.001Z,83.17
2022-12-03T16:10:56.681Z,83.46
2022-12-03T16:14:58.483Z,83.22
2022-12-03T16:19:00.250Z,83.42
2022-12-03T16:23:01.993Z,83.26
2022-12-03T16:27:03.880Z,83.18
2022-12-03T16:31:05.857Z,83.66
2022-12-03T16:35:08.001Z,83.24
2022-12-03T16:39:09.768Z,83.38
2022-12-03T16:43:11.521Z,83.15
2022-12-03T16:47:13.232Z,83.16
2022-12-03T16:51:15.454Z,83.46
2022-12-03T16:55:17.227Z,83.21
2022-12-03T16:59:18.934Z,83.05
2022-12-03T17:03:21.632Z,83.01
2022-12-03T17:07:23.401Z,83.29
2022-12-03T17:11:25.169Z,83.11
2022-12-03T17:15:26.858Z,83.25
2022-12-03T17:19:28.554Z,83.08
2022-12-03T17:23:30.394Z,83.13
2022-12-03T17:27:32.093Z,83.07
2022-12-03T17:31:40.031Z,82.88
2022-12-03T17:35:45.609Z,82.59
2022-12-03T17:39:47.295Z,82.91
2022-12-03T17:43:49.137Z,82.85
2022-12-03T17:47:50.836Z,82.63
2022-12-03T17:51:52.636Z,82.83
2022-12-03T17:55:54.460Z,82.28
2022-12-03T17:59:56.616Z,82.77
2022-12-03T18:03:58.668Z,82.19
2022-12-03T18:08:00.582Z,82.58
2022-12-03T18:12:02.453Z,82.13
2022-12-03T18:16:04.430Z,82.56
2022-12-03T18:20:06.988Z,82.28
2022-12-03T18:24:09.371Z,82.41
2022-12-03T18:28:11.145Z,82.31
2022-12-03T18:32:27.559Z,82.44
2022-12-03T18:36:34.881Z,82.46
2022-12-03T18:40:37.203Z,82.66
2022-12-03T18:44:38.938Z,82.48
2022-12-03T18:48:45.619Z,82.82
2022-12-03T18:52:47.304Z,82.94
2022-12-03T18:56:48.928Z,82.70
2022-12-03T19:00:50.671Z,82.97
2022-12-03T19:04:52.414Z,82.98
2022-12-03T19:08:54.569Z,83.15
2022-12-03T19:12:56.302Z,82.86
2022-12-03T19:16:58.002Z,83.21
2022-12-03T19:20:59.935Z,82.91
2022-12-03T19:25:02.350Z,83.23
2022-12-03T19:29:04.423Z,83.20
2022-12-03T19:33:06.114Z,83.53
2022-12-03T19:37:07.861Z,83.30
2022-12-03T19:41:11.661Z,83.21
2022-12-03T19:45:13.411Z,83.34
2022-12-03T19:49:16.809Z,84.00
2022-12-03T19:53:20.234Z,83.61
2022-12-03T19:57:23.609Z,83.89
2022-12-03T20:01:28.418Z,83.67
2022-12-03T20:05:33.307Z,83.88
2022-12-03T20:09:35.216Z,84.03
2022-12-03T20:13:37.024Z,84.06
2022-12-03T20:17:38.724Z,83.86
2022-12-03T20:21:41.211Z,83.68
2022-12-03T20:25:42.871Z,83.60
2022-12-03T20:29:44.696Z,83.29
2022-12-03T20:33:49.656Z,83.81
2022-12-03T20:37:51.325Z,83.34
2022-12-03T20:41:53.029Z,83.45
2022-12-03T20:45:59.547Z,83.46
2022-12-03T20:50:04.510Z,83.26
2022-12-03T20:54:06.256Z,83.32
2022-12-03T20:58:07.949Z,83.73
2022-12-03T21:02:10.587Z,83.42
2022-12-03T21:06:13.422Z,83.59
2022-12-03T21:10:33.710Z,83.51
2022-12-03T21:14:35.949Z,83.44
2022-12-03T21:18:37.781Z,83.46
2022-12-03T21:22:39.448Z,83.52
2022-12-03T21:26:41.709Z,83.57
2022-12-03T21:30:43.470Z,83.87
2022-12-03T21:34:45.231Z,84.11
2022-12-03T21:38:48.289Z,83.70
2022-12-03T21:42:50.054Z,83.56
2022-12-03T21:47:11.220Z,83.68
2022-12-03T21:51:14.769Z,83.88
2022-12-03T21:55:16.581Z,83.79
2022-12-03T21:59:18.308Z,84.01
2022-12-03T22:03:20.152Z,83.72
2022-12-03T22:07:24.666Z,83.95
2022-12-03T22:11:26.558Z,83.48
2022-12-03T22:15:28.397Z,83.91
2022-12-03T22:19:30.419Z,83.81
2022-12-03T22:23:32.657Z,83.63
2022-12-03T22:27:34.325Z,83.38
2022-12-03T22:31:36.123Z,83.63
2022-12-03T22:35:37.822Z,83.67
2022-12-03T22:39:39.673Z,83.36
2022-12-03T22:43:41.407Z,83.35
2022-12-03T22:47:43.177Z,83.34
2022-12-03T22:51:46.295Z,83.34
2022-12-03T22:55:59.790Z,83.26
2022-12-03T23:00:01.846Z,83.17
2022-12-03T23:04:05.097Z,83.52
2022-12-03T23:08:08.645Z,83.26
2022-12-03T23:12:10.511Z,83.47
2022-12-03T23:16:24.582Z,83.51
2022-12-03T23:20:27.128Z,83.33
2022-12-03T23:24:29.430Z,83.61
2022-12-03T23:28:32.626Z,83.39
2022-12-03T23:32:35.911Z,83.32
2022-12-03T23:36:37.675Z,83.32
2022-12-03T23:40:42.355Z,83.41
2022-12-03T23:44:48.227Z,83.31
2022-12-03T23:48:50.893Z,83.26
2022-12-03T23:52:53.038Z,83.61
2022-12-03T23:56:55.001Z,83.71
